sensor_id;sensor_type;location;lat;lon;timestamp;P1;durP1;ratioP1;P2;durP2;ratioP2
22949;SDS011;11641;51.018;4.474;2023-04-15T00:01:26;9.35;;;3.70;;
22949;SDS011;11641;51.018;4.474;2023-04-15T00:03:52;7.15;;;3.50;;
22949;SDS011;11641;51.018;4.474;2023-04-15T00:06:19;8.68;;;3.65;;
22949;SDS011;11641;51.018;4.474;2023-04-15T00:08:46;7.82;;;3.10;;
22949;SDS011;11641;51.018;4.474;2023-04-15T00:11:12;6.93;;;3.30;;
22949;SDS011;11641;51.018;4.474;2023-04-15T00:13:38;6.35;;;2.67;;
22949;SDS011;11641;51.018;4.474;2023-04-15T00:16:05;6.05;;;2.95;;
22949;SDS011;11641;51.018;4.474;2023-04-15T00:18:35;6.38;;;3.45;;
22949;SDS011;11641;51.018;4.474;2023-04-15T00:21:03;5.95;;;2.63;;
22949;SDS011;11641;51.018;4.474;2023-04-15T00:23:29;4.95;;;2.80;;
22949;SDS011;11641;51.018;4.474;2023-04-15T00:25:55;7.28;;;3.08;;
22949;SDS011;11641;51.018;4.474;2023-04-15T00:28:21;5.65;;;2.92;;
22949;SDS011;11641;51.018;4.474;2023-04-15T00:30:46;4.85;;;2.65;;
22949;SDS011;11641;51.018;4.474;2023-04-15T00:33:16;7.45;;;2.80;;
22949;SDS011;11641;51.018;4.474;2023-04-15T00:35:45;5.97;;;2.60;;
22949;SDS011;11641;51.018;4.474;2023-04-15T00:38:10;11.30;;;3.80;;
22949;SDS011;11641;51.018;4.474;2023-04-15T00:40:38;7.25;;;3.05;;
22949;SDS011;11641;51.018;4.474;2023-04-15T00:43:05;10.93;;;3.20;;
22949;SDS011;11641;51.018;4.474;2023-04-15T00:45:31;6.95;;;2.88;;
22949;SDS011;11641;51.018;4.474;2023-04-15T00:47:57;6.97;;;2.97;;
22949;SDS011;11641;51.018;4.474;2023-04-15T00:50:25;10.93;;;3.40;;
22949;SDS011;11641;51.018;4.474;2023-04-15T00:52:51;11.07;;;3.30;;
22949;SDS011;11641;51.018;4.474;2023-04-15T00:55:19;7.00;;;3.40;;
22949;SDS011;11641;51.018;4.474;2023-04-15T00:57:44;14.35;;;5.40;;
22949;SDS011;11641;51.018;4.474;2023-04-15T01:00:11;16.83;;;8.65;;
22949;SDS011;11641;51.018;4.474;2023-04-15T01:02:36;14.75;;;8.88;;
22949;SDS011;11641;51.018;4.474;2023-04-15T01:05:03;11.75;;;7.45;;
22949;SDS011;11641;51.018;4.474;2023-04-15T01:07:29;11.90;;;7.28;;
22949;SDS011;11641;51.018;4.474;2023-04-15T01:09:56;13.00;;;7.20;;
22949;SDS011;11641;51.018;4.474;2023-04-15T01:12:24;12.75;;;6.55;;
22949;SDS011;11641;51.018;4.474;2023-04-15T01:14:52;10.38;;;5.72;;
22949;SDS011;11641;51.018;4.474;2023-04-15T01:17:18;9.63;;;5.20;;
22949;SDS011;11641;51.018;4.474;2023-04-15T01:19:46;8.98;;;5.10;;
22949;SDS011;11641;51.018;4.474;2023-04-15T01:22:12;7.22;;;4.25;;
22949;SDS011;11641;51.018;4.474;2023-04-15T01:24:37;8.90;;;4.00;;
22949;SDS011;11641;51.018;4.474;2023-04-15T01:27:08;8.65;;;3.78;;
22949;SDS011;11641;51.018;4.474;2023-04-15T01:29:36;7.38;;;4.18;;
22949;SDS011;11641;51.018;4.474;2023-04-15T01:32:02;8.70;;;4.60;;
22949;SDS011;11641;51.018;4.474;2023-04-15T01:34:28;7.95;;;4.28;;
22949;SDS011;11641;51.018;4.474;2023-04-15T01:36:56;7.85;;;4.10;;
22949;SDS011;11641;51.018;4.474;2023-04-15T01:39:22;6.47;;;3.33;;
22949;SDS011;11641;51.018;4.474;2023-04-15T01:41:48;9.40;;;3.70;;
22949;SDS011;11641;51.018;4.474;2023-04-15T01:44:13;6.82;;;3.80;;
22949;SDS011;11641;51.018;4.474;2023-04-15T01:46:39;7.78;;;3.58;;
22949;SDS011;11641;51.018;4.474;2023-04-15T01:49:05;7.65;;;3.35;;
22949;SDS011;11641;51.018;4.474;2023-04-15T01:51:34;8.30;;;3.70;;
22949;SDS011;11641;51.018;4.474;2023-04-15T01:53:59;9.88;;;3.80;;
22949;SDS011;11641;51.018;4.474;2023-04-15T01:56:28;7.63;;;4.15;;
22949;SDS011;11641;51.018;4.474;2023-04-15T01:58:56;8.02;;;4.70;;
22949;SDS011;11641;51.018;4.474;2023-04-15T02:01:21;9.38;;;5.13;;
22949;SDS011;11641;51.018;4.474;2023-04-15T02:03:49;7.70;;;4.75;;
22949;SDS011;11641;51.018;4.474;2023-04-15T02:06:15;9.70;;;4.68;;
22949;SDS011;11641;51.018;4.474;2023-04-15T02:08:41;8.75;;;5.47;;
22949;SDS011;11641;51.018;4.474;2023-04-15T02:11:07;9.75;;;5.55;;
22949;SDS011;11641;51.018;4.474;2023-04-15T02:13:33;8.40;;;5.30;;
22949;SDS011;11641;51.018;4.474;2023-04-15T02:15:59;10.48;;;5.75;;
22949;SDS011;11641;51.018;4.474;2023-04-15T02:18:25;10.35;;;5.40;;
22949;SDS011;11641;51.018;4.474;2023-04-15T02:20:52;10.95;;;5.43;;
22949;SDS011;11641;51.018;4.474;2023-04-15T02:23:18;8.10;;;5.25;;
22949;SDS011;11641;51.018;4.474;2023-04-15T02:25:46;9.90;;;5.72;;
22949;SDS011;11641;51.018;4.474;2023-04-15T02:28:14;10.60;;;5.60;;
22949;SDS011;11641;51.018;4.474;2023-04-15T02:30:40;11.20;;;5.35;;
22949;SDS011;11641;51.018;4.474;2023-04-15T02:33:06;9.30;;;5.45;;
22949;SDS011;11641;51.018;4.474;2023-04-15T02:35:31;11.25;;;5.82;;
22949;SDS011;11641;51.018;4.474;2023-04-15T02:37:57;9.30;;;5.32;;
22949;SDS011;11641;51.018;4.474;2023-04-15T02:40:23;7.95;;;4.50;;
22949;SDS011;11641;51.018;4.474;2023-04-15T02:42:48;9.90;;;4.70;;
22949;SDS011;11641;51.018;4.474;2023-04-15T02:45:15;6.53;;;4.13;;
22949;SDS011;11641;51.018;4.474;2023-04-15T02:47:44;7.75;;;4.00;;
22949;SDS011;11641;51.018;4.474;2023-04-15T02:50:11;8.18;;;4.20;;
22949;SDS011;11641;51.018;4.474;2023-04-15T02:52:38;15.68;;;4.18;;
22949;SDS011;11641;51.018;4.474;2023-04-15T02:55:05;7.45;;;4.32;;
22949;SDS011;11641;51.018;4.474;2023-04-15T02:57:34;7.35;;;4.15;;
22949;SDS011;11641;51.018;4.474;2023-04-15T03:00:02;10.15;;;4.43;;
22949;SDS011;11641;51.018;4.474;2023-04-15T03:02:32;7.88;;;4.45;;
22949;SDS011;11641;51.018;4.474;2023-04-15T03:04:59;12.63;;;4.15;;
22949;SDS011;11641;51.018;4.474;2023-04-15T03:07:25;8.82;;;4.28;;
22949;SDS011;11641;51.018;4.474;2023-04-15T03:09:50;7.75;;;4.35;;
22949;SDS011;11641;51.018;4.474;2023-04-15T03:12:16;9.23;;;4.65;;
22949;SDS011;11641;51.018;4.474;2023-04-15T03:14:44;10.30;;;5.05;;
22949;SDS011;11641;51.018;4.474;2023-04-15T03:17:10;11.45;;;4.90;;
22949;SDS011;11641;51.018;4.474;2023-04-15T03:19:38;8.00;;;4.90;;
22949;SDS011;11641;51.018;4.474;2023-04-15T03:22:06;9.43;;;5.18;;
22949;SDS011;11641;51.018;4.474;2023-04-15T03:24:32;11.63;;;5.15;;
22949;SDS011;11641;51.018;4.474;2023-04-15T03:26:59;12.75;;;5.60;;
22949;SDS011;11641;51.018;4.474;2023-04-15T03:29:25;8.55;;;4.68;;
22949;SDS011;11641;51.018;4.474;2023-04-15T03:31:53;19.90;;;5.60;;
22949;SDS011;11641;51.018;4.474;2023-04-15T03:34:21;9.45;;;4.97;;
22949;SDS011;11641;51.018;4.474;2023-04-15T03:36:47;10.32;;;5.60;;
22949;SDS011;11641;51.018;4.474;2023-04-15T03:39:12;9.20;;;5.57;;
22949;SDS011;11641;51.018;4.474;2023-04-15T03:41:38;12.23;;;5.30;;
22949;SDS011;11641;51.018;4.474;2023-04-15T03:44:06;14.43;;;5.45;;
22949;SDS011;11641;51.018;4.474;2023-04-15T03:46:32;10.05;;;5.15;;
22949;SDS011;11641;51.018;4.474;2023-04-15T03:49:00;10.43;;;4.78;;
22949;SDS011;11641;51.018;4.474;2023-04-15T03:51:26;9.85;;;5.03;;
22949;SDS011;11641;51.018;4.474;2023-04-15T03:53:52;11.05;;;5.57;;
22949;SDS011;11641;51.018;4.474;2023-04-15T03:56:17;10.75;;;5.00;;
22949;SDS011;11641;51.018;4.474;2023-04-15T03:58:43;11.60;;;5.00;;
22949;SDS011;11641;51.018;4.474;2023-04-15T04:01:09;10.00;;;4.90;;
22949;SDS011;11641;51.018;4.474;2023-04-15T04:03:34;8.50;;;5.45;;
22949;SDS011;11641;51.018;4.474;2023-04-15T04:06:02;12.15;;;4.55;;
22949;SDS011;11641;51.018;4.474;2023-04-15T04:08:28;11.15;;;5.25;;
22949;SDS011;11641;51.018;4.474;2023-04-15T04:10:56;11.23;;;5.30;;
22949;SDS011;11641;51.018;4.474;2023-04-15T04:13:22;9.55;;;4.90;;
22949;SDS011;11641;51.018;4.474;2023-04-15T04:15:47;8.55;;;4.90;;
22949;SDS011;11641;51.018;4.474;2023-04-15T04:18:13;13.77;;;5.57;;
22949;SDS011;11641;51.018;4.474;2023-04-15T04:20:38;7.75;;;5.13;;
22949;SDS011;11641;51.018;4.474;2023-04-15T04:23:05;12.10;;;5.05;;
22949;SDS011;11641;51.018;4.474;2023-04-15T04:25:30;11.23;;;5.45;;
22949;SDS011;11641;51.018;4.474;2023-04-15T04:27:57;9.35;;;5.32;;
22949;SDS011;11641;51.018;4.474;2023-04-15T04:30:23;10.90;;;5.43;;
22949;SDS011;11641;51.018;4.474;2023-04-15T04:32:49;9.60;;;5.60;;
22949;SDS011;11641;51.018;4.474;2023-04-15T04:35:15;11.27;;;5.57;;
22949;SDS011;11641;51.018;4.474;2023-04-15T04:37:43;10.27;;;5.28;;
22949;SDS011;11641;51.018;4.474;2023-04-15T04:40:09;10.48;;;5.50;;
22949;SDS011;11641;51.018;4.474;2023-04-15T04:42:37;10.20;;;5.55;;
22949;SDS011;11641;51.018;4.474;2023-04-15T04:45:03;8.18;;;5.22;;
22949;SDS011;11641;51.018;4.474;2023-04-15T04:47:32;10.40;;;5.45;;
22949;SDS011;11641;51.018;4.474;2023-04-15T04:49:57;12.20;;;5.45;;
22949;SDS011;11641;51.018;4.474;2023-04-15T04:52:23;15.13;;;5.68;;
22949;SDS011;11641;51.018;4.474;2023-04-15T04:54:49;10.57;;;5.20;;
22949;SDS011;11641;51.018;4.474;2023-04-15T04:57:14;15.32;;;5.70;;
22949;SDS011;11641;51.018;4.474;2023-04-15T04:59:40;12.73;;;5.28;;
22949;SDS011;11641;51.018;4.474;2023-04-15T05:02:06;9.65;;;5.43;;
22949;SDS011;11641;51.018;4.474;2023-04-15T05:04:31;11.23;;;5.07;;
22949;SDS011;11641;51.018;4.474;2023-04-15T05:06:57;9.68;;;4.57;;
22949;SDS011;11641;51.018;4.474;2023-04-15T05:09:23;8.07;;;4.80;;
22949;SDS011;11641;51.018;4.474;2023-04-15T05:11:49;10.85;;;4.82;;
22949;SDS011;11641;51.018;4.474;2023-04-15T05:14:17;9.60;;;4.43;;
22949;SDS011;11641;51.018;4.474;2023-04-15T05:16:42;10.70;;;4.80;;
22949;SDS011;11641;51.018;4.474;2023-04-15T05:19:08;12.52;;;4.75;;
22949;SDS011;11641;51.018;4.474;2023-04-15T05:21:34;9.23;;;4.80;;
22949;SDS011;11641;51.018;4.474;2023-04-15T05:23:59;8.95;;;4.78;;
22949;SDS011;11641;51.018;4.474;2023-04-15T05:26:30;8.50;;;4.43;;
22949;SDS011;11641;51.018;4.474;2023-04-15T05:28:55;10.80;;;4.90;;
22949;SDS011;11641;51.018;4.474;2023-04-15T05:31:23;12.27;;;4.80;;
22949;SDS011;11641;51.018;4.474;2023-04-15T05:33:49;9.25;;;4.78;;
22949;SDS011;11641;51.018;4.474;2023-04-15T05:36:15;11.70;;;5.38;;
22949;SDS011;11641;51.018;4.474;2023-04-15T05:38:43;8.70;;;4.60;;
22949;SDS011;11641;51.018;4.474;2023-04-15T05:41:08;8.93;;;4.63;;
22949;SDS011;11641;51.018;4.474;2023-04-15T05:43:34;7.75;;;4.15;;
22949;SDS011;11641;51.018;4.474;2023-04-15T05:46:00;7.78;;;4.72;;
22949;SDS011;11641;51.018;4.474;2023-04-15T05:48:25;10.95;;;5.03;;
22949;SDS011;11641;51.018;4.474;2023-04-15T05:50:51;10.80;;;4.63;;
22949;SDS011;11641;51.018;4.474;2023-04-15T05:53:17;10.98;;;4.93;;
22949;SDS011;11641;51.018;4.474;2023-04-15T05:55:44;11.15;;;4.95;;
22949;SDS011;11641;51.018;4.474;2023-04-15T05:58:10;10.93;;;4.90;;
22949;SDS011;11641;51.018;4.474;2023-04-15T06:00:36;11.65;;;5.45;;
22949;SDS011;11641;51.018;4.474;2023-04-15T06:03:04;9.88;;;5.30;;
22949;SDS011;11641;51.018;4.474;2023-04-15T06:05:32;9.75;;;5.28;;
22949;SDS011;11641;51.018;4.474;2023-04-15T06:08:00;12.13;;;5.28;;
22949;SDS011;11641;51.018;4.474;2023-04-15T06:10:26;9.02;;;4.78;;
22949;SDS011;11641;51.018;4.474;2023-04-15T06:12:56;13.23;;;5.25;;
22949;SDS011;11641;51.018;4.474;2023-04-15T06:15:21;14.02;;;5.75;;
22949;SDS011;11641;51.018;4.474;2023-04-15T06:17:47;10.93;;;5.22;;
22949;SDS011;11641;51.018;4.474;2023-04-15T06:20:12;11.77;;;5.70;;
22949;SDS011;11641;51.018;4.474;2023-04-15T06:22:38;11.68;;;5.63;;
22949;SDS011;11641;51.018;4.474;2023-04-15T06:25:05;11.50;;;5.82;;
22949;SDS011;11641;51.018;4.474;2023-04-15T06:27:32;11.48;;;5.10;;
22949;SDS011;11641;51.018;4.474;2023-04-15T06:30:00;12.85;;;5.68;;
22949;SDS011;11641;51.018;4.474;2023-04-15T06:32:26;10.35;;;5.53;;
22949;SDS011;11641;51.018;4.474;2023-04-15T06:34:51;12.27;;;5.82;;
22949;SDS011;11641;51.018;4.474;2023-04-15T06:37:17;15.73;;;6.15;;
22949;SDS011;11641;51.018;4.474;2023-04-15T06:39:42;12.40;;;6.75;;
22949;SDS011;11641;51.018;4.474;2023-04-15T06:42:11;9.73;;;5.65;;
22949;SDS011;11641;51.018;4.474;2023-04-15T06:44:36;13.88;;;6.35;;
22949;SDS011;11641;51.018;4.474;2023-04-15T06:47:02;11.05;;;6.65;;
22949;SDS011;11641;51.018;4.474;2023-04-15T06:49:28;10.13;;;5.85;;
22949;SDS011;11641;51.018;4.474;2023-04-15T06:51:54;13.02;;;6.57;;
22949;SDS011;11641;51.018;4.474;2023-04-15T06:54:20;12.10;;;6.78;;
22949;SDS011;11641;51.018;4.474;2023-04-15T06:56:46;14.35;;;6.82;;
22949;SDS011;11641;51.018;4.474;2023-04-15T06:59:14;13.82;;;7.25;;
22949;SDS011;11641;51.018;4.474;2023-04-15T07:01:40;11.95;;;7.10;;
22949;SDS011;11641;51.018;4.474;2023-04-15T07:04:06;11.75;;;7.90;;
22949;SDS011;11641;51.018;4.474;2023-04-15T07:06:31;13.00;;;7.25;;
22949;SDS011;11641;51.018;4.474;2023-04-15T07:08:57;15.60;;;8.27;;
22949;SDS011;11641;51.018;4.474;2023-04-15T07:11:24;16.30;;;8.80;;
22949;SDS011;11641;51.018;4.474;2023-04-15T07:13:54;12.85;;;8.68;;
22949;SDS011;11641;51.018;4.474;2023-04-15T07:16:19;13.95;;;8.57;;
22949;SDS011;11641;51.018;4.474;2023-04-15T07:18:45;12.63;;;8.20;;
22949;SDS011;11641;51.018;4.474;2023-04-15T07:21:13;13.43;;;8.55;;
22949;SDS011;11641;51.018;4.474;2023-04-15T07:23:41;17.83;;;9.95;;
22949;SDS011;11641;51.018;4.474;2023-04-15T07:26:07;15.95;;;9.45;;
22949;SDS011;11641;51.018;4.474;2023-04-15T07:28:33;20.27;;;10.25;;
22949;SDS011;11641;51.018;4.474;2023-04-15T07:30:59;16.23;;;10.63;;
22949;SDS011;11641;51.018;4.474;2023-04-15T07:33:25;14.00;;;10.02;;
22949;SDS011;11641;51.018;4.474;2023-04-15T07:35:50;13.45;;;9.75;;
22949;SDS011;11641;51.018;4.474;2023-04-15T07:38:16;18.77;;;10.30;;
22949;SDS011;11641;51.018;4.474;2023-04-15T07:40:42;12.65;;;9.88;;
22949;SDS011;11641;51.018;4.474;2023-04-15T07:43:08;18.58;;;10.93;;
22949;SDS011;11641;51.018;4.474;2023-04-15T07:45:33;14.30;;;10.07;;
22949;SDS011;11641;51.018;4.474;2023-04-15T07:48:02;19.80;;;11.02;;
22949;SDS011;11641;51.018;4.474;2023-04-15T07:50:28;19.85;;;9.85;;
22949;SDS011;11641;51.018;4.474;2023-04-15T07:52:54;14.77;;;10.57;;
22949;SDS011;11641;51.018;4.474;2023-04-15T07:55:22;14.60;;;10.02;;
22949;SDS011;11641;51.018;4.474;2023-04-15T07:57:48;18.13;;;11.18;;
22949;SDS011;11641;51.018;4.474;2023-04-15T08:00:17;17.33;;;11.10;;
22949;SDS011;11641;51.018;4.474;2023-04-15T08:02:44;15.65;;;10.57;;
22949;SDS011;11641;51.018;4.474;2023-04-15T08:05:12;17.90;;;10.07;;
22949;SDS011;11641;51.018;4.474;2023-04-15T08:07:38;19.17;;;10.20;;
22949;SDS011;11641;51.018;4.474;2023-04-15T08:10:05;18.15;;;10.32;;
22949;SDS011;11641;51.018;4.474;2023-04-15T08:12:31;15.48;;;9.70;;
22949;SDS011;11641;51.018;4.474;2023-04-15T08:14:57;15.57;;;9.18;;
22949;SDS011;11641;51.018;4.474;2023-04-15T08:17:26;11.23;;;8.40;;
22949;SDS011;11641;51.018;4.474;2023-04-15T08:19:52;13.55;;;7.43;;
22949;SDS011;11641;51.018;4.474;2023-04-15T08:22:18;15.48;;;7.28;;
22949;SDS011;11641;51.018;4.474;2023-04-15T08:24:43;10.32;;;6.07;;
22949;SDS011;11641;51.018;4.474;2023-04-15T08:27:09;12.55;;;5.95;;
22949;SDS011;11641;51.018;4.474;2023-04-15T08:29:37;13.32;;;5.80;;
22949;SDS011;11641;51.018;4.474;2023-04-15T08:32:03;14.18;;;6.78;;
22949;SDS011;11641;51.018;4.474;2023-04-15T08:34:33;11.77;;;5.53;;
22949;SDS011;11641;51.018;4.474;2023-04-15T08:37:01;11.23;;;6.70;;
22949;SDS011;11641;51.018;4.474;2023-04-15T08:39:26;13.75;;;6.57;;
22949;SDS011;11641;51.018;4.474;2023-04-15T08:42:10;9.43;;;6.80;;
22949;SDS011;11641;51.018;4.474;2023-04-15T08:44:43;13.63;;;7.43;;
22949;SDS011;11641;51.018;4.474;2023-04-15T08:47:12;11.30;;;6.30;;
22949;SDS011;11641;51.018;4.474;2023-04-15T08:49:39;10.35;;;6.60;;
22949;SDS011;11641;51.018;4.474;2023-04-15T08:52:05;12.43;;;6.80;;
22949;SDS011;11641;51.018;4.474;2023-04-15T08:54:32;9.35;;;5.90;;
22949;SDS011;11641;51.018;4.474;2023-04-15T08:56:58;10.73;;;6.28;;
22949;SDS011;11641;51.018;4.474;2023-04-15T08:59:24;16.73;;;7.07;;
22949;SDS011;11641;51.018;4.474;2023-04-15T09:01:50;10.25;;;6.35;;
22949;SDS011;11641;51.018;4.474;2023-04-15T09:04:16;10.63;;;6.53;;
22949;SDS011;11641;51.018;4.474;2023-04-15T09:06:45;12.40;;;7.40;;
22949;SDS011;11641;51.018;4.474;2023-04-15T09:09:11;8.23;;;5.80;;
22949;SDS011;11641;51.018;4.474;2023-04-15T09:11:38;10.20;;;5.47;;
22949;SDS011;11641;51.018;4.474;2023-04-15T09:14:04;9.18;;;5.35;;
22949;SDS011;11641;51.018;4.474;2023-04-15T09:16:30;6.80;;;4.80;;
22949;SDS011;11641;51.018;4.474;2023-04-15T09:18:55;15.80;;;4.63;;
22949;SDS011;11641;51.018;4.474;2023-04-15T09:21:21;10.60;;;5.15;;
22949;SDS011;11641;51.018;4.474;2023-04-15T09:26:34;11.00;;;5.50;;
22949;SDS011;11641;51.018;4.474;2023-04-15T09:31:34;8.75;;;4.60;;
22949;SDS011;11641;51.018;4.474;2023-04-15T09:34:01;7.53;;;4.68;;
22949;SDS011;11641;51.018;4.474;2023-04-15T09:36:27;8.32;;;4.47;;
22949;SDS011;11641;51.018;4.474;2023-04-15T09:38:58;7.55;;;4.70;;
22949;SDS011;11641;51.018;4.474;2023-04-15T09:41:25;6.93;;;4.18;;
22949;SDS011;11641;51.018;4.474;2023-04-15T09:43:51;10.68;;;4.20;;
22949;SDS011;11641;51.018;4.474;2023-04-15T09:46:17;7.53;;;4.50;;
22949;SDS011;11641;51.018;4.474;2023-04-15T09:48:43;7.40;;;3.78;;
22949;SDS011;11641;51.018;4.474;2023-04-15T09:51:08;9.27;;;4.35;;
22949;SDS011;11641;51.018;4.474;2023-04-15T09:53:34;6.68;;;4.15;;
22949;SDS011;11641;51.018;4.474;2023-04-15T09:56:03;5.60;;;3.63;;
22949;SDS011;11641;51.018;4.474;2023-04-15T09:58:34;6.05;;;3.78;;
22949;SDS011;11641;51.018;4.474;2023-04-15T10:01:04;7.45;;;3.53;;
22949;SDS011;11641;51.018;4.474;2023-04-15T10:03:34;8.63;;;3.38;;
22949;SDS011;11641;51.018;4.474;2023-04-15T10:06:03;5.40;;;2.97;;
22949;SDS011;11641;51.018;4.474;2023-04-15T10:08:32;5.07;;;2.90;;
22949;SDS011;11641;51.018;4.474;2023-04-15T10:11:01;3.83;;;2.42;;
22949;SDS011;11641;51.018;4.474;2023-04-15T10:13:29;4.85;;;2.67;;
22949;SDS011;11641;51.018;4.474;2023-04-15T10:18:42;4.55;;;2.22;;
22949;SDS011;11641;51.018;4.474;2023-04-15T10:21:12;8.38;;;2.90;;
22949;SDS011;11641;51.018;4.474;2023-04-15T10:23:42;4.97;;;2.55;;
22949;SDS011;11641;51.018;4.474;2023-04-15T10:26:12;3.97;;;2.70;;
22949;SDS011;11641;51.018;4.474;2023-04-15T10:28:43;5.10;;;2.75;;
22949;SDS011;11641;51.018;4.474;2023-04-15T10:31:14;4.63;;;2.30;;
22949;SDS011;11641;51.018;4.474;2023-04-15T10:33:43;4.97;;;2.28;;
22949;SDS011;11641;51.018;4.474;2023-04-15T10:36:11;5.07;;;2.60;;
22949;SDS011;11641;51.018;4.474;2023-04-15T10:46:34;6.25;;;2.90;;
22949;SDS011;11641;51.018;4.474;2023-04-15T10:49:14;6.63;;;2.60;;
22949;SDS011;11641;51.018;4.474;2023-04-15T10:51:42;4.05;;;2.33;;
22949;SDS011;11641;51.018;4.474;2023-04-15T10:57:06;6.65;;;2.30;;
22949;SDS011;11641;51.018;4.474;2023-04-15T10:59:33;3.38;;;1.88;;
22949;SDS011;11641;51.018;4.474;2023-04-15T11:07:46;2.45;;;1.70;;
22949;SDS011;11641;51.018;4.474;2023-04-15T11:15:44;6.28;;;2.88;;
22949;SDS011;11641;51.018;4.474;2023-04-15T11:18:11;3.70;;;2.88;;
22949;SDS011;11641;51.018;4.474;2023-04-15T11:20:51;6.82;;;2.10;;
22949;SDS011;11641;51.018;4.474;2023-04-15T11:23:27;4.72;;;2.80;;
22949;SDS011;11641;51.018;4.474;2023-04-15T11:25:57;3.53;;;1.92;;
22949;SDS011;11641;51.018;4.474;2023-04-15T11:28:27;5.53;;;1.85;;
22949;SDS011;11641;51.018;4.474;2023-04-15T11:30:54;6.80;;;2.40;;
22949;SDS011;11641;51.018;4.474;2023-04-15T11:33:20;2.30;;;1.83;;
22949;SDS011;11641;51.018;4.474;2023-04-15T11:35:47;4.03;;;1.90;;
22949;SDS011;11641;51.018;4.474;2023-04-15T11:38:13;4.15;;;1.90;;
22949;SDS011;11641;51.018;4.474;2023-04-15T11:40:39;5.20;;;2.40;;
22949;SDS011;11641;51.018;4.474;2023-04-15T11:43:13;4.78;;;2.40;;
22949;SDS011;11641;51.018;4.474;2023-04-15T11:45:51;3.28;;;2.58;;
22949;SDS011;11641;51.018;4.474;2023-04-15T11:48:24;4.25;;;2.35;;
22949;SDS011;11641;51.018;4.474;2023-04-15T11:50:55;3.23;;;2.07;;
22949;SDS011;11641;51.018;4.474;2023-04-15T11:53:41;3.70;;;1.73;;
22949;SDS011;11641;51.018;4.474;2023-04-15T11:56:23;3.58;;;2.40;;
22949;SDS011;11641;51.018;4.474;2023-04-15T11:58:54;4.40;;;1.98;;
22949;SDS011;11641;51.018;4.474;2023-04-15T12:01:32;3.42;;;1.83;;
22949;SDS011;11641;51.018;4.474;2023-04-15T12:04:16;3.75;;;2.00;;
22949;SDS011;11641;51.018;4.474;2023-04-15T12:06:47;3.03;;;1.75;;
22949;SDS011;11641;51.018;4.474;2023-04-15T12:09:13;2.83;;;1.52;;
22949;SDS011;11641;51.018;4.474;2023-04-15T12:11:47;4.05;;;1.67;;
22949;SDS011;11641;51.018;4.474;2023-04-15T12:16:51;3.28;;;1.50;;
22949;SDS011;11641;51.018;4.474;2023-04-15T12:22:02;3.47;;;1.60;;
22949;SDS011;11641;51.018;4.474;2023-04-15T12:24:33;4.05;;;1.98;;
22949;SDS011;11641;51.018;4.474;2023-04-15T12:27:04;3.30;;;2.53;;
22949;SDS011;11641;51.018;4.474;2023-04-15T12:29:36;4.28;;;2.10;;
22949;SDS011;11641;51.018;4.474;2023-04-15T12:34:32;3.38;;;2.03;;
22949;SDS011;11641;51.018;4.474;2023-04-15T12:37:16;4.05;;;1.70;;
22949;SDS011;11641;51.018;4.474;2023-04-15T12:39:43;2.67;;;1.50;;
22949;SDS011;11641;51.018;4.474;2023-04-15T12:42:16;3.33;;;1.30;;
22949;SDS011;11641;51.018;4.474;2023-04-15T12:44:42;2.70;;;1.20;;
22949;SDS011;11641;51.018;4.474;2023-04-15T12:47:08;2.92;;;1.52;;
22949;SDS011;11641;51.018;4.474;2023-04-15T12:49:34;5.97;;;1.60;;
22949;SDS011;11641;51.018;4.474;2023-04-15T12:52:01;6.20;;;1.83;;
22949;SDS011;11641;51.018;4.474;2023-04-15T12:54:30;2.92;;;1.63;;
22949;SDS011;11641;51.018;4.474;2023-04-15T12:56:56;1.80;;;1.40;;
22949;SDS011;11641;51.018;4.474;2023-04-15T12:59:23;7.90;;;2.05;;
22949;SDS011;11641;51.018;4.474;2023-04-15T13:01:51;6.15;;;1.60;;
22949;SDS011;11641;51.018;4.474;2023-04-15T13:04:18;3.92;;;1.55;;
22949;SDS011;11641;51.018;4.474;2023-04-15T13:06:44;6.63;;;1.70;;
22949;SDS011;11641;51.018;4.474;2023-04-15T13:09:12;3.80;;;2.10;;
22949;SDS011;11641;51.018;4.474;2023-04-15T13:11:40;2.42;;;1.52;;
22949;SDS011;11641;51.018;4.474;2023-04-15T13:14:07;5.38;;;1.52;;
22949;SDS011;11641;51.018;4.474;2023-04-15T13:16:35;3.70;;;1.52;;
22949;SDS011;11641;51.018;4.474;2023-04-15T13:19:03;4.20;;;1.63;;
22949;SDS011;11641;51.018;4.474;2023-04-15T13:21:29;2.70;;;1.20;;
22949;SDS011;11641;51.018;4.474;2023-04-15T13:23:58;4.95;;;1.58;;
22949;SDS011;11641;51.018;4.474;2023-04-15T13:26:24;4.07;;;1.30;;
22949;SDS011;11641;51.018;4.474;2023-04-15T13:28:50;3.17;;;1.20;;
22949;SDS011;11641;51.018;4.474;2023-04-15T13:31:17;6.55;;;1.40;;
22949;SDS011;11641;51.018;4.474;2023-04-15T13:33:43;2.95;;;1.17;;
22949;SDS011;11641;51.018;4.474;2023-04-15T13:36:08;3.10;;;1.20;;
22949;SDS011;11641;51.018;4.474;2023-04-15T13:38:34;5.28;;;1.20;;
22949;SDS011;11641;51.018;4.474;2023-04-15T13:41:00;2.22;;;1.10;;
22949;SDS011;11641;51.018;4.474;2023-04-15T13:43:25;4.85;;;1.40;;
22949;SDS011;11641;51.018;4.474;2023-04-15T13:45:51;9.02;;;2.08;;
22949;SDS011;11641;51.018;4.474;2023-04-15T13:48:19;2.08;;;1.30;;
22949;SDS011;11641;51.018;4.474;2023-04-15T13:50:47;2.65;;;1.20;;
22949;SDS011;11641;51.018;4.474;2023-04-15T13:53:15;4.18;;;1.10;;
22949;SDS011;11641;51.018;4.474;2023-04-15T13:55:43;2.53;;;0.80;;
22949;SDS011;11641;51.018;4.474;2023-04-15T13:58:11;4.18;;;0.80;;
22949;SDS011;11641;51.018;4.474;2023-04-15T14:00:39;2.72;;;0.60;;
22949;SDS011;11641;51.018;4.474;2023-04-15T14:03:05;2.10;;;0.50;;
22949;SDS011;11641;51.018;4.474;2023-04-15T14:05:31;5.30;;;0.60;;
22949;SDS011;11641;51.018;4.474;2023-04-15T14:07:57;2.53;;;0.60;;
22949;SDS011;11641;51.018;4.474;2023-04-15T14:10:23;3.53;;;0.70;;
22949;SDS011;11641;51.018;4.474;2023-04-15T14:12:49;6.90;;;1.00;;
22949;SDS011;11641;51.018;4.474;2023-04-15T14:15:15;3.17;;;0.70;;
22949;SDS011;11641;51.018;4.474;2023-04-15T14:17:44;1.45;;;0.77;;
22949;SDS011;11641;51.018;4.474;2023-04-15T14:20:10;3.25;;;0.77;;
22949;SDS011;11641;51.018;4.474;2023-04-15T14:22:35;3.33;;;0.70;;
22949;SDS011;11641;51.018;4.474;2023-04-15T14:25:03;4.78;;;0.90;;
22949;SDS011;11641;51.018;4.474;2023-04-15T14:27:32;2.88;;;1.08;;
22949;SDS011;11641;51.018;4.474;2023-04-15T14:29:57;2.63;;;1.10;;
22949;SDS011;11641;51.018;4.474;2023-04-15T14:32:24;3.25;;;1.00;;
22949;SDS011;11641;51.018;4.474;2023-04-15T14:34:52;3.60;;;1.10;;
22949;SDS011;11641;51.018;4.474;2023-04-15T14:37:22;2.35;;;0.90;;
22949;SDS011;11641;51.018;4.474;2023-04-15T14:39:48;3.45;;;1.30;;
22949;SDS011;11641;51.018;4.474;2023-04-15T14:42:16;3.42;;;1.15;;
22949;SDS011;11641;51.018;4.474;2023-04-15T14:44:41;2.65;;;1.50;;
22949;SDS011;11641;51.018;4.474;2023-04-15T14:47:08;4.68;;;1.80;;
22949;SDS011;11641;51.018;4.474;2023-04-15T14:49:34;3.30;;;1.30;;
22949;SDS011;11641;51.018;4.474;2023-04-15T14:52:00;4.28;;;1.52;;
22949;SDS011;11641;51.018;4.474;2023-04-15T14:54:25;3.08;;;1.60;;
22949;SDS011;11641;51.018;4.474;2023-04-15T14:56:51;2.85;;;1.73;;
22949;SDS011;11641;51.018;4.474;2023-04-15T14:59:21;6.05;;;1.73;;
22949;SDS011;11641;51.018;4.474;2023-04-15T15:01:47;3.45;;;1.52;;
22949;SDS011;11641;51.018;4.474;2023-04-15T15:04:15;7.03;;;2.00;;
22949;SDS011;11641;51.018;4.474;2023-04-15T15:06:41;4.47;;;1.73;;
22949;SDS011;11641;51.018;4.474;2023-04-15T15:09:11;5.50;;;1.67;;
22949;SDS011;11641;51.018;4.474;2023-04-15T15:11:37;4.38;;;1.95;;
22949;SDS011;11641;51.018;4.474;2023-04-15T15:14:03;4.60;;;2.10;;
22949;SDS011;11641;51.018;4.474;2023-04-15T15:16:28;3.08;;;1.63;;
22949;SDS011;11641;51.018;4.474;2023-04-15T15:18:54;4.32;;;1.55;;
22949;SDS011;11641;51.018;4.474;2023-04-15T15:21:20;4.25;;;1.70;;